Time;durP1;ratioP1;P1;durP2;ratioP2;P2;SDS_P1;SDS_P2;PMS_P1;PMS_P2;Temp;Humidity;BMP_temperature;BMP_pressure;BME280_temperature;BME280_humidity;BME280_pressure;Samples;Min_cycle;Max_cycle;Signal;HPM_P1;HPM_P2
2023/10/14 00:02:12;;;;;;;0.23;0.23;;;13.50;99.90;;;;;;6148372;23;20509;-88
2023/10/14 00:04:38;;;;;;;5.00;0.90;;;13.30;99.90;;;;;;6125217;23;20571;-87
2023/10/14 00:07:08;;;;;;;0.30;0.30;;;13.20;99.90;;;;;;6123722;23;20660;-86
2023/10/14 00:09:42;;;;;;;0.77;0.50;;;13.20;99.90;;;;;;6124208;23;20203;-88
2023/10/14 00:12:13;;;;;;;1.30;0.80;;;13.10;99.90;;;;;;6126098;23;20211;-88
2023/10/14 00:14:43;;;;;;;1.10;0.67;;;13.20;99.90;;;;;;6148346;23;20155;-89
2023/10/14 00:17:34;;;;;;;2.00;0.70;;;13.20;99.90;;;;;;6149644;23;20155;-87
2023/10/14 00:19:58;;;;;;;0.20;0.20;;;13.10;99.90;;;;;;6150490;23;20203;-88
2023/10/14 00:22:26;;;;;;;1.53;0.53;;;13.10;99.90;;;;;;6125392;23;20202;-87
2023/10/14 00:24:52;;;;;;;0.50;0.50;;;13.20;99.90;;;;;;6126515;23;20220;-88
2023/10/14 00:27:18;;;;;;;0.80;0.80;;;13.20;99.90;;;;;;6125824;23;20211;-88
2023/10/14 00:29:44;;;;;;;0.90;0.80;;;13.20;99.90;;;;;;6125699;23;20245;-87
2023/10/14 00:32:10;;;;;;;2.47;0.50;;;13.20;99.90;;;;;;6126107;23;20191;-87
2023/10/14 00:34:35;;;;;;;0.97;0.97;;;13.10;99.90;;;;;;6125715;23;20203;-88
2023/10/14 00:37:01;;;;;;;1.87;0.90;;;13.10;99.90;;;;;;6125870;23;20204;-86
2023/10/14 00:39:27;;;;;;;4.43;0.60;;;13.10;99.90;;;;;;6125188;23;20195;-88
2023/10/14 00:41:55;;;;;;;6.97;0.87;;;13.10;99.90;;;;;;6125842;23;20193;-88
2023/10/14 00:44:24;;;;;;;0.80;0.80;;;13.10;99.90;;;;;;6125877;23;20279;-88
2023/10/14 00:46:50;;;;;;;0.90;0.70;;;13.10;99.90;;;;;;6125804;23;20544;-88
2023/10/14 00:49:18;;;;;;;1.60;1.10;;;13.30;99.90;;;;;;6125364;23;20654;-88
2023/10/14 00:51:49;;;;;;;0.20;0.20;;;13.40;99.90;;;;;;6149732;23;20211;-87
2023/10/14 00:55:12;;;;;;;1.80;0.40;;;13.30;99.90;;;;;;6150146;23;20199;-89
2023/10/14 00:59:55;;;;;;;3.13;0.93;;;13.20;99.90;;;;;;6146702;23;20239;-87
2023/10/14 01:02:30;;;;;;;0.40;0.40;;;13.20;99.90;;;;;;6126971;23;20183;-88
2023/10/14 01:04:58;;;;;;;0.40;0.40;;;13.30;99.90;;;;;;6126548;23;20584;-87
2023/10/14 01:07:24;;;;;;;0.40;0.30;;;13.30;99.90;;;;;;6150022;23;20584;-87
2023/10/14 01:09:54;;;;;;;0.80;0.30;;;13.30;99.90;;;;;;6149903;23;20199;-89
2023/10/14 01:12:26;;;;;;;2.53;0.60;;;13.30;99.90;;;;;;6149638;23;20660;-89
2023/10/14 01:14:53;;;;;;;0.23;0.23;;;13.20;99.90;;;;;;6150055;23;20206;-87
2023/10/14 01:17:32;;;;;;;0.23;0.23;;;13.20;99.90;;;;;;6150231;23;20243;-88
2023/10/14 01:20:00;;;;;;;0.50;0.50;;;13.30;99.90;;;;;;6149615;23;20643;-88
2023/10/14 01:22:29;;;;;;;0.40;0.40;;;13.30;99.90;;;;;;6149543;23;20234;-88
2023/10/14 01:24:55;;;;;;;0.30;0.30;;;13.20;99.90;;;;;;6149701;23;20192;-88
2023/10/14 01:27:34;;;;;;;0.77;0.40;;;13.20;99.90;;;;;;6125027;23;20330;-87
2023/10/14 01:29:59;;;;;;;2.57;0.20;;;13.10;99.90;;;;;;6126237;23;20267;-88
2023/10/14 01:35:12;;;;;;;5.67;0.57;;;13.20;99.90;;;;;;6150718;23;20299;-87
2023/10/14 01:37:40;;;;;;;3.70;0.63;;;13.30;99.90;;;;;;6126343;23;20199;-89
2023/10/14 01:42:56;;;;;;;8.83;0.40;;;13.30;99.90;;;;;;6128967;23;20203;-88
2023/10/14 01:45:39;;;;;;;2.27;1.00;;;13.20;99.90;;;;;;6149295;23;20234;-89
2023/10/14 01:50:47;;;;;;;3.03;1.40;;;13.10;99.90;;;;;;6149397;23;20162;-88
2023/10/14 01:53:18;;;;;;;1.03;0.50;;;13.10;99.90;;;;;;6149770;23;20239;-89
2023/10/14 01:55:45;;;;;;;6.23;0.30;;;13.20;99.90;;;;;;6125180;23;20214;-88
2023/10/14 01:58:45;;;;;;;3.57;0.57;;;13.30;99.90;;;;;;6125166;23;20218;-87
2023/10/14 02:03:44;;;;;;;5.40;0.87;;;13.50;99.90;;;;;;6150563;23;20219;-88
2023/10/14 02:06:17;;;;;;;0.60;0.40;;;13.40;99.90;;;;;;6149054;23;20245;-87
2023/10/14 02:08:54;;;;;;;1.00;0.60;;;13.40;99.90;;;;;;6124805;23;20151;-87
2023/10/14 02:11:41;;;;;;;1.17;1.07;;;13.30;99.90;;;;;;6149701;23;20685;-89
2023/10/14 02:14:08;;;;;;;0.80;0.80;;;13.30;99.90;;;;;;6149422;23;20554;-89
2023/10/14 02:16:42;;;;;;;0.30;0.30;;;13.30;99.90;;;;;;6124625;23;20207;-86
2023/10/14 02:21:58;;;;;;;8.33;1.00;;;13.30;99.90;;;;;;6128257;23;20206;-88
2023/10/14 02:24:25;;;;;;;2.73;0.20;;;13.20;99.90;;;;;;6125395;23;20644;-87
2023/10/14 02:26:52;;;;;;;3.33;0.70;;;13.20;99.90;;;;;;6124794;23;20172;-87
2023/10/14 02:29:17;;;;;;;0.97;0.57;;;13.10;99.90;;;;;;6124854;23;20164;-88
2023/10/14 02:31:46;;;;;;;4.13;0.70;;;13.00;99.90;;;;;;6148576;23;20211;-88
2023/10/14 02:34:15;;;;;;;4.30;0.43;;;13.00;99.90;;;;;;6125435;23;20195;-88
2023/10/14 02:36:42;;;;;;;0.93;0.47;;;13.00;99.90;;;;;;6148658;23;20222;-87
2023/10/14 02:39:17;;;;;;;0.60;0.60;;;13.00;99.90;;;;;;6148983;23;20199;-87
2023/10/14 02:41:45;;;;;;;0.13;0.13;;;13.00;99.90;;;;;;6149710;23;20143;-88
2023/10/14 02:46:42;;;;;;;0.40;0.40;;;13.00;99.90;;;;;;6150123;23;20242;-89
2023/10/14 02:49:14;;;;;;;0.10;0.10;;;13.00;99.90;;;;;;6148965;23;20203;-88
2023/10/14 02:51:44;;;;;;;0.37;0.30;;;13.00;99.90;;;;;;6148333;23;20203;-87
2023/10/14 02:57:13;;;;;;;4.33;1.37;;;12.90;99.90;;;;;;6071781;23;20204;-87
2023/10/14 03:02:13;;;;;;;5.40;1.17;;;13.00;99.90;;;;;;6150679;23;20174;-89
2023/10/14 03:04:54;;;;;;;1.60;0.33;;;13.00;99.90;;;;;;6124633;23;20281;-88
2023/10/14 03:07:29;;;;;;;0.20;0.20;;;13.00;99.90;;;;;;6148561;23;20395;-88
2023/10/14 03:12:50;;;;;;;3.73;0.37;;;13.00;99.90;;;;;;6148485;23;20231;-89
2023/10/14 03:15:21;;;;;;;4.83;0.83;;;13.10;99.90;;;;;;6148893;23;20979;-89
2023/10/14 03:17:58;;;;;;;2.07;0.50;;;13.00;99.90;;;;;;6125744;23;20154;-88
2023/10/14 03:23:09;;;;;;;0.87;0.87;;;13.00;99.90;;;;;;6149642;23;20198;-89
2023/10/14 03:25:35;;;;;;;0.20;0.20;;;13.10;99.90;;;;;;6148155;23;20205;-88
2023/10/14 03:28:19;;;;;;;1.23;0.80;;;13.10;99.90;;;;;;6123838;23;20199;-88
2023/10/14 03:30:56;;;;;;;0.20;0.20;;;13.10;99.90;;;;;;6148647;23;20294;-88
2023/10/14 03:33:23;;;;;;;1.17;0.40;;;13.10;99.90;;;;;;6148366;23;20203;-87
2023/10/14 03:35:57;;;;;;;0.17;0.17;;;13.10;99.90;;;;;;6148845;23;20167;-90
2023/10/14 03:41:18;;;;;;;0.77;0.73;;;13.10;99.90;;;;;;6150390;23;20469;-88
2023/10/14 03:46:41;;;;;;;0.37;0.37;;;13.10;99.90;;;;;;6149869;23;20203;-88
2023/10/14 03:49:11;;;;;;;3.53;0.30;;;13.10;99.90;;;;;;6127144;23;20206;-88
2023/10/14 03:51:39;;;;;;;0.50;0.50;;;13.10;99.90;;;;;;6126259;23;20210;-89
2023/10/14 03:54:08;;;;;;;3.20;1.23;;;13.10;99.90;;;;;;6150503;23;20246;-88
2023/10/14 03:56:35;;;;;;;3.13;1.27;;;13.10;99.90;;;;;;6151310;23;20530;-87
2023/10/14 03:59:02;;;;;;;3.00;0.30;;;13.00;99.90;;;;;;6126417;23;20190;-87
2023/10/14 04:01:54;;;;;;;3.03;1.03;;;12.90;99.90;;;;;;6150226;23;20195;-88
2023/10/14 04:04:19;;;;;;;2.60;0.63;;;12.90;99.90;;;;;;6151381;23;20191;-89
2023/10/14 04:06:55;;;;;;;3.97;0.53;;;12.90;99.90;;;;;;6125999;23;20218;-88
2023/10/14 04:09:36;;;;;;;1.00;0.57;;;12.80;99.90;;;;;;6150553;23;20195;-87
2023/10/14 04:12:07;;;;;;;0.10;0.10;;;12.80;99.90;;;;;;6150155;23;20214;-88
2023/10/14 04:14:36;;;;;;;0.93;0.40;;;12.90;99.90;;;;;;6126717;23;20218;-86
2023/10/14 04:17:10;;;;;;;0.57;0.57;;;12.90;99.90;;;;;;6126328;23;20262;-88
2023/10/14 04:19:46;;;;;;;2.00;1.53;;;12.80;99.90;;;;;;6149756;23;20525;-89
2023/10/14 04:22:32;;;;;;;2.27;0.93;;;12.60;99.90;;;;;;6149791;23;20233;-87
2023/10/14 04:30:21;;;;;;;0.20;0.20;;;12.60;99.90;;;;;;6151624;23;20632;-89
2023/10/14 04:35:25;;;;;;;0.40;0.40;;;12.60;99.90;;;;;;6152151;23;20166;-87
2023/10/14 04:37:52;;;;;;;1.40;1.03;;;12.60;99.90;;;;;;6127144;23;20205;-88
2023/10/14 04:48:35;;;;;;;0.50;0.50;;;12.50;99.90;;;;;;6151235;23;20215;-89
2023/10/14 04:51:09;;;;;;;3.27;0.77;;;12.40;99.90;;;;;;6126302;23;20278;-89
2023/10/14 04:53:36;;;;;;;8.13;0.50;;;12.50;99.90;;;;;;6150328;23;20178;-87
2023/10/14 04:56:08;;;;;;;1.43;0.93;;;12.60;99.90;;;;;;6150066;23;20217;-89
2023/10/14 04:58:46;;;;;;;1.67;0.60;;;12.70;99.90;;;;;;6125174;23;20195;-87
2023/10/14 05:01:17;;;;;;;0.23;0.23;;;12.70;99.90;;;;;;6126592;23;20203;-88
2023/10/14 05:03:44;;;;;;;2.57;0.90;;;12.70;99.90;;;;;;6148738;23;20243;-88
2023/10/14 05:08:47;;;;;;;3.93;0.60;;;12.70;99.90;;;;;;6149923;23;20191;-88
2023/10/14 05:11:18;;;;;;;2.73;0.93;;;12.60;99.90;;;;;;6150703;23;20480;-87
2023/10/14 05:16:29;;;;;;;1.17;0.50;;;12.60;99.90;;;;;;6150849;23;20648;-88
2023/10/14 05:21:47;;;;;;;7.40;0.83;;;12.70;99.90;;;;;;6137622;23;20199;-88
2023/10/14 05:24:13;;;;;;;0.30;0.30;;;12.70;99.90;;;;;;6125175;23;20568;-87
2023/10/14 05:26:46;;;;;;;2.57;0.93;;;12.70;99.90;;;;;;6124959;23;20162;-88
2023/10/14 05:29:19;;;;;;;0.40;0.40;;;12.70;99.90;;;;;;6149977;23;20203;-89
2023/10/14 05:31:49;;;;;;;0.80;0.60;;;12.60;99.90;;;;;;6126146;23;20195;-89
2023/10/14 05:34:24;;;;;;;8.23;0.60;;;12.60;99.90;;;;;;6149210;23;20195;-89
2023/10/14 05:36:57;;;;;;;0.87;0.30;;;12.50;99.90;;;;;;6149183;23;20221;-90
2023/10/14 05:39:24;;;;;;;7.20;0.90;;;12.50;99.90;;;;;;6149372;23;20198;-89
2023/10/14 05:41:58;;;;;;;0.63;0.63;;;12.60;99.90;;;;;;6150827;23;20160;-87
2023/10/14 05:44:27;;;;;;;12.17;2.17;;;12.60;99.90;;;;;;6127282;23;20160;-88
2023/10/14 05:46:56;;;;;;;4.90;1.00;;;12.60;99.90;;;;;;6148769;23;20195;-87
2023/10/14 05:49:24;;;;;;;8.63;0.40;;;12.60;99.90;;;;;;6124682;23;20278;-88
2023/10/14 05:51:51;;;;;;;0.30;0.30;;;12.60;99.90;;;;;;6148425;23;20226;-88
2023/10/14 05:54:18;;;;;;;1.33;0.73;;;12.60;99.90;;;;;;6124588;23;20202;-87
2023/10/14 05:56:44;;;;;;;0.30;0.30;;;12.60;99.90;;;;;;6148905;23;20156;-88
2023/10/14 05:59:10;;;;;;;1.80;0.77;;;12.60;99.90;;;;;;6125046;23;20159;-88
2023/10/14 06:01:38;;;;;;;5.83;0.30;;;12.70;99.90;;;;;;6124708;23;20337;-87
2023/10/14 06:04:05;;;;;;;0.30;0.30;;;12.70;99.90;;;;;;6148736;23;20195;-88
2023/10/14 06:06:33;;;;;;;1.33;0.57;;;12.70;99.90;;;;;;6124248;23;20199;-91
2023/10/14 06:09:00;;;;;;;0.97;0.40;;;12.70;99.90;;;;;;6148139;23;20195;-85
2023/10/14 06:11:26;;;;;;;3.13;0.80;;;12.70;99.90;;;;;;6125226;23;20328;-86
2023/10/14 06:13:52;;;;;;;1.80;0.50;;;12.80;99.90;;;;;;6148027;23;20211;-88
2023/10/14 06:16:18;;;;;;;4.03;1.33;;;12.80;99.90;;;;;;6123620;23;20195;-87
2023/10/14 06:18:47;;;;;;;2.63;1.37;;;12.80;99.90;;;;;;6123976;23;20275;-88
2023/10/14 06:21:15;;;;;;;2.03;0.67;;;12.80;99.90;;;;;;6125146;23;20655;-87
2023/10/14 06:23:47;;;;;;;0.53;0.30;;;12.80;99.90;;;;;;6124438;23;20163;-88
2023/10/14 06:26:17;;;;;;;2.80;0.70;;;12.80;99.90;;;;;;6126211;23;20168;-89
2023/10/14 06:28:48;;;;;;;3.93;1.10;;;12.90;99.90;;;;;;6124425;23;20199;-87
2023/10/14 06:31:14;;;;;;;2.17;0.40;;;12.90;99.90;;;;;;6148652;23;20195;-88
2023/10/14 06:33:43;;;;;;;1.63;0.77;;;12.90;99.90;;;;;;6124087;23;20294;-89
2023/10/14 06:36:14;;;;;;;0.97;0.40;;;12.90;99.90;;;;;;6147297;23;20277;-90
2023/10/14 06:38:46;;;;;;;0.63;0.40;;;12.90;99.90;;;;;;6149062;23;20239;-89
2023/10/14 06:41:16;;;;;;;2.73;0.40;;;12.90;99.90;;;;;;6151136;23;20166;-89
2023/10/14 06:43:43;;;;;;;4.70;0.40;;;12.90;99.90;;;;;;6148565;23;20708;-88
2023/10/14 06:46:12;;;;;;;1.50;0.53;;;13.00;99.90;;;;;;6124358;23;20940;-89
2023/10/14 06:48:41;;;;;;;3.27;0.33;;;13.10;99.90;;;;;;6149363;23;20579;-88
2023/10/14 06:51:09;;;;;;;0.27;0.27;;;13.40;99.90;;;;;;6148404;23;20225;-86
2023/10/14 06:53:35;;;;;;;1.87;0.80;;;13.70;99.90;;;;;;6149397;23;20790;-87
2023/10/14 06:56:01;;;;;;;1.13;0.70;;;13.50;99.90;;;;;;6148548;23;20195;-89
2023/10/14 06:58:28;;;;;;;0.20;0.20;;;13.40;99.90;;;;;;6148038;23;20191;-87
2023/10/14 07:00:57;;;;;;;0.30;0.30;;;13.20;99.90;;;;;;6148236;23;20196;-86
2023/10/14 07:03:23;;;;;;;3.17;1.03;;;13.10;99.90;;;;;;6148873;23;20199;-88
2023/10/14 07:08:21;;;;;;;0.20;0.20;;;13.00;99.90;;;;;;6149503;23;20144;-87
2023/10/14 07:10:50;;;;;;;5.53;0.40;;;13.00;99.90;;;;;;6123777;23;20521;-87
2023/10/14 07:13:20;;;;;;;0.93;0.33;;;13.10;99.90;;;;;;6124221;23;21126;-88
2023/10/14 07:15:47;;;;;;;0.40;0.40;;;13.20;99.90;;;;;;6147777;23;20203;-87
2023/10/14 07:18:13;;;;;;;0.43;0.43;;;13.30;99.90;;;;;;6149086;23;20206;-89
2023/10/14 07:20:41;;;;;;;0.20;0.20;;;13.30;99.90;;;;;;6123703;23;20588;-88
2023/10/14 07:23:08;;;;;;;2.00;0.67;;;13.20;99.90;;;;;;6124968;23;20608;-88
2023/10/14 07:25:36;;;;;;;0.87;0.40;;;13.40;99.90;;;;;;6148555;23;20187;-88
2023/10/14 07:28:07;;;;;;;1.70;0.40;;;13.70;99.90;;;;;;6147741;23;20765;-87
2023/10/14 07:30:34;;;;;;;0.87;0.73;;;13.70;99.90;;;;;;6124986;23;20199;-88
2023/10/14 07:33:01;;;;;;;2.70;0.50;;;14.20;99.90;;;;;;6123731;23;20213;-87
2023/10/14 07:35:27;;;;;;;2.70;0.57;;;15.10;99.90;;;;;;6149024;23;20166;-90
2023/10/14 07:37:53;;;;;;;0.27;0.27;;;15.80;99.90;;;;;;6123143;23;20195;-87
2023/10/14 07:40:23;;;;;;;3.60;0.73;;;16.00;99.90;;;;;;6123839;23;20261;-88
2023/10/14 07:42:53;;;;;;;2.20;0.20;;;16.60;99.90;;;;;;6124469;23;20199;-88
2023/10/14 07:45:28;;;;;;;7.73;0.90;;;16.80;99.90;;;;;;6148308;23;20198;-90
2023/10/14 07:47:56;;;;;;;1.37;0.50;;;17.00;99.90;;;;;;6148103;23;20689;-90
2023/10/14 07:50:22;;;;;;;1.13;1.00;;;17.10;99.90;;;;;;6148652;23;20163;-87
2023/10/14 07:52:48;;;;;;;0.67;0.40;;;16.90;99.90;;;;;;6148167;23;20203;-87
2023/10/14 07:55:22;;;;;;;4.13;1.67;;;17.10;99.90;;;;;;6123538;23;20974;-87
2023/10/14 07:57:51;;;;;;;11.23;1.13;;;17.20;99.90;;;;;;6148003;23;20218;-87
2023/10/14 08:00:17;;;;;;;2.83;1.70;;;17.20;99.90;;;;;;6148500;23;20215;-89
2023/10/14 08:02:43;;;;;;;0.87;0.60;;;17.30;99.90;;;;;;6123812;23;20188;-88
2023/10/14 08:05:10;;;;;;;2.60;0.73;;;16.90;99.90;;;;;;6123821;23;20230;-90
2023/10/14 08:07:40;;;;;;;6.00;1.10;;;16.90;99.90;;;;;;6148305;23;20571;-88
2023/10/14 08:10:21;;;;;;;2.07;1.07;;;17.40;99.90;;;;;;6148669;23;20254;-87
2023/10/14 08:12:51;;;;;;;1.30;0.83;;;17.40;99.90;;;;;;6148065;23;21073;-88
2023/10/14 08:15:19;;;;;;;1.23;0.63;;;17.40;99.90;;;;;;6147723;23;20210;-87
2023/10/14 08:17:48;;;;;;;0.63;0.53;;;17.50;99.90;;;;;;6123741;23;20615;-87
2023/10/14 08:20:18;;;;;;;0.43;0.43;;;17.30;99.90;;;;;;6146791;23;20163;-89
2023/10/14 08:22:47;;;;;;;0.60;0.40;;;16.80;99.90;;;;;;6146511;23;20206;-89
2023/10/14 08:25:15;;;;;;;8.50;0.50;;;16.50;99.90;;;;;;6146487;23;20203;-89
2023/10/14 08:27:42;;;;;;;0.40;0.40;;;16.20;99.90;;;;;;6147402;23;20211;-89
2023/10/14 08:30:11;;;;;;;4.00;1.10;;;16.10;99.90;;;;;;6147132;23;20187;-87
2023/10/14 08:32:40;;;;;;;1.43;0.70;;;16.00;99.90;;;;;;6122833;23;20187;-86
2023/10/14 08:35:15;;;;;;;0.70;0.70;;;15.00;99.90;;;;;;6147918;23;20179;-88
2023/10/14 08:37:46;;;;;;;1.07;1.07;;;14.50;99.90;;;;;;6147652;23;20252;-89
2023/10/14 08:40:16;;;;;;;0.43;0.30;;;14.00;99.90;;;;;;6150800;23;20534;-88
2023/10/14 08:42:50;;;;;;;3.10;1.63;;;13.80;99.90;;;;;;6148250;23;20278;-89
2023/10/14 08:45:21;;;;;;;2.00;0.30;;;13.60;99.90;;;;;;6149087;23;20517;-89
2023/10/14 08:47:50;;;;;;;0.40;0.40;;;13.60;99.90;;;;;;6148239;23;20152;-88
2023/10/14 08:50:24;;;;;;;5.20;0.80;;;13.70;99.90;;;;;;6125305;23;20592;-89
2023/10/14 08:52:53;;;;;;;1.87;0.87;;;14.00;99.90;;;;;;6123857;23;20238;-88
2023/10/14 08:55:20;;;;;;;1.90;0.50;;;14.20;99.90;;;;;;6148589;23;20196;-88
2023/10/14 08:57:48;;;;;;;0.90;0.50;;;14.40;99.90;;;;;;6148617;23;20782;-87
2023/10/14 09:00:25;;;;;;;4.57;1.23;;;14.70;99.90;;;;;;6148394;23;20976;-89
2023/10/14 09:02:53;;;;;;;0.80;0.73;;;14.70;99.90;;;;;;6124050;23;20539;-89
2023/10/14 09:05:20;;;;;;;0.87;0.70;;;14.60;99.90;;;;;;6149001;23;20194;-88
2023/10/14 09:07:50;;;;;;;5.77;0.40;;;14.50;99.90;;;;;;6148814;23;20270;-88
2023/10/14 09:10:18;;;;;;;4.43;2.00;;;14.50;99.90;;;;;;6124088;23;20576;-88
2023/10/14 09:12:58;;;;;;;0.60;0.47;;;14.70;99.90;;;;;;6122380;23;20206;-88
2023/10/14 09:15:28;;;;;;;0.30;0.30;;;14.90;99.90;;;;;;6148592;23;20578;-88
2023/10/14 09:17:55;;;;;;;0.90;0.80;;;14.70;99.90;;;;;;6123667;23;20191;-88
2023/10/14 09:20:36;;;;;;;1.70;0.80;;;14.70;99.90;;;;;;6149165;23;20171;-89
2023/10/14 09:23:27;;;;;;;0.87;0.47;;;14.40;99.90;;;;;;6148113;23;20617;-88
2023/10/14 09:26:00;;;;;;;2.17;0.33;;;14.00;99.90;;;;;;6148257;23;20648;-86
2023/10/14 09:28:40;;;;;;;0.80;0.80;;;13.80;99.90;;;;;;6148559;23;20195;-88
2023/10/14 09:31:08;;;;;;;1.70;0.73;;;13.70;99.90;;;;;;6147811;23;20199;-87
2023/10/14 09:33:41;;;;;;;2.63;0.30;;;13.50;99.90;;;;;;6147994;23;20208;-87
2023/10/14 09:36:14;;;;;;;0.63;0.40;;;13.30;99.90;;;;;;6148723;23;20211;-88
2023/10/14 09:38:41;;;;;;;0.40;0.30;;;13.30;99.90;;;;;;6148651;23;20235;-87
2023/10/14 09:41:10;;;;;;;6.03;0.57;;;13.40;99.90;;;;;;6147352;23;20242;-88
2023/10/14 09:43:42;;;;;;;0.90;0.20;;;13.40;99.90;;;;;;6148693;23;20202;-88
2023/10/14 09:46:11;;;;;;;0.20;0.20;;;13.60;99.90;;;;;;6148088;23;21023;-88
2023/10/14 09:48:37;;;;;;;0.97;0.83;;;13.90;99.90;;;;;;6147546;23;20203;-88
2023/10/14 09:51:05;;;;;;;0.67;0.63;;;14.10;99.90;;;;;;6147639;23;20692;-87
2023/10/14 09:53:33;;;;;;;1.93;0.70;;;14.20;99.90;;;;;;6148773;23;20659;-88
2023/10/14 09:56:06;;;;;;;3.63;0.50;;;14.20;99.90;;;;;;6147713;23;20206;-87
2023/10/14 09:58:36;;;;;;;0.10;0.10;;;14.00;99.90;;;;;;6148300;23;20203;-87
2023/10/14 10:01:04;;;;;;;2.87;0.40;;;14.20;99.90;;;;;;6122823;23;20199;-88
2023/10/14 10:03:44;;;;;;;0.37;0.37;;;14.40;99.90;;;;;;6148080;23;20214;-88
2023/10/14 10:06:35;;;;;;;2.00;0.77;;;14.50;99.90;;;;;;6147825;23;20199;-88
2023/10/14 10:09:19;;;;;;;1.33;0.53;;;14.50;99.90;;;;;;6148644;23;20613;-87
2023/10/14 10:11:48;;;;;;;0.10;0.10;;;14.70;99.90;;;;;;6146409;23;20140;-87
2023/10/14 10:14:19;;;;;;;1.83;1.10;;;14.40;99.90;;;;;;6148989;23;20227;-87
2023/10/14 10:16:49;;;;;;;11.90;0.53;;;14.20;99.90;;;;;;6147964;23;20199;-88
2023/10/14 10:19:14;;;;;;;0.83;0.23;;;13.90;99.90;;;;;;6148258;23;20274;-88
2023/10/14 10:22:29;;;;;;;0.23;0.23;;;14.30;99.90;;;;;;6122781;23;20199;-88
2023/10/14 10:24:56;;;;;;;3.33;1.00;;;14.70;99.90;;;;;;6144500;23;20214;-87
2023/10/14 10:27:22;;;;;;;0.40;0.40;;;15.40;99.90;;;;;;6123985;23;20318;-86
2023/10/14 10:29:48;;;;;;;0.83;0.63;;;15.70;99.90;;;;;;6123376;23;20191;-87
2023/10/14 10:32:19;;;;;;;0.97;0.90;;;16.00;99.90;;;;;;6147740;23;20690;-88
2023/10/14 10:35:07;;;;;;;0.33;0.33;;;16.20;99.90;;;;;;6148166;23;20194;-89
2023/10/14 10:37:44;;;;;;;2.20;2.10;;;16.50;99.90;;;;;;6147876;23;20206;-88
2023/10/14 10:40:11;;;;;;;0.40;0.40;;;15.40;99.90;;;;;;6147291;23;20198;-88
2023/10/14 10:42:39;;;;;;;3.30;0.70;;;14.60;99.90;;;;;;6147130;23;20225;-87
2023/10/14 10:45:09;;;;;;;0.60;0.27;;;15.10;99.90;;;;;;6147919;23;20230;-88
2023/10/14 10:47:56;;;;;;;0.27;0.27;;;15.70;99.90;;;;;;6124396;23;20172;-88
2023/10/14 10:50:26;;;;;;;2.10;0.30;;;15.70;99.90;;;;;;6148150;23;20202;-90
2023/10/14 10:53:17;;;;;;;2.20;0.87;;;16.20;99.90;;;;;;6146700;23;20203;-87
2023/10/14 10:55:48;;;;;;;0.53;0.53;;;16.50;99.90;;;;;;6140007;23;20592;-88
2023/10/14 10:58:15;;;;;;;1.47;1.37;;;16.30;99.90;;;;;;6147604;23;20198;-86
2023/10/14 11:00:44;;;;;;;1.80;0.50;;;16.10;99.90;;;;;;6146658;23;20199;-92
2023/10/14 11:03:14;;;;;;;3.27;0.67;;;16.30;99.90;;;;;;6122241;23;20637;-89
2023/10/14 11:05:41;;;;;;;4.27;1.00;;;16.60;99.90;;;;;;6123945;23;20205;-88
2023/10/14 11:08:07;;;;;;;3.33;1.07;;;16.50;99.90;;;;;;6148063;23;20152;-88
2023/10/14 11:10:38;;;;;;;3.77;1.27;;;16.20;99.90;;;;;;6146992;23;20230;-88
2023/10/14 11:13:07;;;;;;;6.23;1.20;;;16.10;99.90;;;;;;6146294;23;20757;-91
2023/10/14 11:15:34;;;;;;;5.67;0.70;;;15.90;99.90;;;;;;6122904;23;20195;-88
2023/10/14 11:18:01;;;;;;;1.50;1.13;;;15.50;99.90;;;;;;6122608;23;20191;-89
2023/10/14 11:20:31;;;;;;;8.83;1.33;;;15.90;99.90;;;;;;6147996;23;20166;-88
2023/10/14 11:22:58;;;;;;;0.57;0.57;;;16.00;99.90;;;;;;6145878;23;20204;-88
2023/10/14 11:25:25;;;;;;;2.87;1.10;;;16.00;99.90;;;;;;6147311;23;20222;-88
2023/10/14 11:27:54;;;;;;;3.37;0.60;;;16.00;99.90;;;;;;6147297;23;20548;-89
2023/10/14 11:30:21;;;;;;;4.33;0.80;;;16.00;99.90;;;;;;6147613;23;20219;-88
2023/10/14 11:32:50;;;;;;;3.20;0.60;;;15.90;99.90;;;;;;6122055;23;20217;-87
2023/10/14 11:35:29;;;;;;;0.53;0.40;;;15.70;99.90;;;;;;6123519;23;20160;-88
2023/10/14 11:38:00;;;;;;;1.20;0.50;;;15.80;99.90;;;;;;6147331;23;20250;-88
2023/10/14 11:40:40;;;;;;;0.97;0.50;;;15.90;99.90;;;;;;6147001;23;20508;-88
2023/10/14 11:43:10;;;;;;;1.50;0.43;;;15.70;99.90;;;;;;6146701;23;20206;-89
2023/10/14 11:45:41;;;;;;;0.40;0.30;;;15.70;99.90;;;;;;6147420;23;20195;-90
2023/10/14 11:48:07;;;;;;;0.23;0.23;;;15.90;99.90;;;;;;6146955;23;20199;-88
2023/10/14 11:50:34;;;;;;;0.60;0.60;;;15.60;99.90;;;;;;6123516;23;20187;-88
2023/10/14 11:53:02;;;;;;;3.80;1.43;;;15.60;99.90;;;;;;6146099;23;20908;-87
2023/10/14 11:55:29;;;;;;;1.47;1.07;;;15.70;99.90;;;;;;6146747;23;20270;-88
2023/10/14 11:57:54;;;;;;;1.20;0.60;;;15.70;99.90;;;;;;6147044;23;20227;-88
2023/10/14 12:00:21;;;;;;;2.43;1.40;;;15.40;99.90;;;;;;6122295;23;20254;-89
2023/10/14 12:02:47;;;;;;;2.20;1.20;;;15.40;99.90;;;;;;6147912;23;20164;-88
2023/10/14 12:05:16;;;;;;;4.53;1.10;;;15.50;99.90;;;;;;6123242;23;20193;-88
2023/10/14 12:07:52;;;;;;;4.20;1.60;;;15.70;99.90;;;;;;6146908;23;20210;-88
2023/10/14 12:10:18;;;;;;;1.03;0.40;;;15.40;99.90;;;;;;6122705;23;20195;-88
2023/10/14 12:12:52;;;;;;;2.20;0.87;;;15.40;99.90;;;;;;6146419;23;20214;-89
2023/10/14 12:15:18;;;;;;;2.77;1.37;;;15.50;99.90;;;;;;6126244;23;20210;-89
2023/10/14 12:17:45;;;;;;;5.17;1.03;;;14.70;99.90;;;;;;6148455;23;20155;-89
2023/10/14 12:20:14;;;;;;;1.17;0.37;;;14.60;99.90;;;;;;6124524;23;20164;-88
2023/10/14 12:22:41;;;;;;;0.40;0.40;;;14.80;99.90;;;;;;6124120;23;20222;-87
2023/10/14 12:25:08;;;;;;;0.37;0.37;;;14.90;99.90;;;;;;6124065;23;20195;-89
2023/10/14 12:27:34;;;;;;;0.33;0.30;;;15.10;99.90;;;;;;6124631;23;20210;-87
2023/10/14 12:30:00;;;;;;;0.90;0.83;;;14.90;99.90;;;;;;6147597;23;20195;-87
2023/10/14 12:32:30;;;;;;;1.60;0.40;;;14.30;99.90;;;;;;6148348;23;20624;-87
2023/10/14 12:34:58;;;;;;;0.80;0.50;;;14.00;99.90;;;;;;6148728;23;20195;-87
2023/10/14 12:37:26;;;;;;;0.30;0.30;;;13.90;99.90;;;;;;6148878;23;20202;-88
2023/10/14 12:42:49;;;;;;;1.30;0.57;;;14.10;99.90;;;;;;6127042;23;20660;-87
2023/10/14 12:45:22;;;;;;;0.63;0.63;;;14.30;99.90;;;;;;6127206;23;20203;-87
2023/10/14 12:47:56;;;;;;;5.97;0.80;;;14.40;99.90;;;;;;6148495;23;20148;-89
2023/10/14 12:50:22;;;;;;;0.37;0.30;;;14.50;99.90;;;;;;6149307;23;20152;-88
2023/10/14 12:53:05;;;;;;;0.97;0.97;;;14.60;99.90;;;;;;6147966;23;20203;-88
2023/10/14 12:55:31;;;;;;;1.13;1.07;;;14.70;99.90;;;;;;6126660;23;20925;-88
2023/10/14 12:57:58;;;;;;;4.00;1.17;;;14.30;99.90;;;;;;6124654;23;20216;-90
2023/10/14 13:00:30;;;;;;;5.93;1.27;;;14.10;99.90;;;;;;6123298;23;20195;-88
2023/10/14 13:03:00;;;;;;;0.50;0.50;;;13.80;99.90;;;;;;6124450;23;21203;-87
2023/10/14 13:05:27;;;;;;;0.30;0.30;;;13.50;99.90;;;;;;6124940;23;20508;-88
2023/10/14 13:07:54;;;;;;;0.77;0.37;;;13.40;99.90;;;;;;6149218;23;20199;-88
2023/10/14 13:10:23;;;;;;;1.20;0.50;;;13.40;99.90;;;;;;6123464;23;20196;-88
2023/10/14 13:12:51;;;;;;;0.20;0.13;;;13.80;99.90;;;;;;6147765;23;20203;-89
2023/10/14 13:15:25;;;;;;;1.57;1.47;;;13.90;99.90;;;;;;6123786;23;20723;-86
2023/10/14 13:17:57;;;;;;;0.13;0.13;;;13.70;99.90;;;;;;6148791;23;20144;-87
2023/10/14 13:20:34;;;;;;;0.23;0.23;;;13.50;99.90;;;;;;6148919;23;20151;-87
2023/10/14 13:23:08;;;;;;;0.20;0.20;;;13.80;99.90;;;;;;6147494;23;20199;-88
2023/10/14 13:25:39;;;;;;;1.70;0.47;;;14.00;99.90;;;;;;6147743;23;20210;-89
2023/10/14 13:28:09;;;;;;;2.67;0.30;;;13.80;99.90;;;;;;6148574;23;20222;-87
2023/10/14 13:30:45;;;;;;;3.73;2.20;;;13.80;99.90;;;;;;6148289;23;20199;-88
2023/10/14 13:33:12;;;;;;;4.47;0.83;;;14.10;99.90;;;;;;6147525;23;20241;-88
2023/10/14 13:35:42;;;;;;;4.70;0.70;;;14.40;99.90;;;;;;6148905;23;20550;-87
2023/10/14 13:38:10;;;;;;;0.60;0.60;;;14.60;99.90;;;;;;6149448;23;20186;-90
2023/10/14 13:40:39;;;;;;;0.57;0.40;;;14.90;99.90;;;;;;6148424;23;20230;-87
2023/10/14 13:43:06;;;;;;;0.30;0.30;;;14.60;99.90;;;;;;6147515;23;20195;-87
2023/10/14 13:45:32;;;;;;;0.40;0.40;;;14.70;99.90;;;;;;6148034;23;20700;-87
2023/10/14 13:48:05;;;;;;;0.23;0.23;;;14.50;99.90;;;;;;6148482;23;20632;-88
2023/10/14 13:50:37;;;;;;;0.30;0.30;;;14.50;99.90;;;;;;6148364;23;20144;-88
2023/10/14 13:53:09;;;;;;;0.83;0.50;;;14.50;99.90;;;;;;6145440;23;20282;-89
2023/10/14 13:55:38;;;;;;;2.47;1.63;;;14.60;99.90;;;;;;6148028;23;20203;-87
2023/10/14 13:58:11;;;;;;;0.50;0.50;;;14.70;99.90;;;;;;6123187;23;20616;-87
2023/10/14 14:00:39;;;;;;;1.53;1.43;;;14.50;99.90;;;;;;6148090;23;20206;-88
2023/10/14 14:03:06;;;;;;;2.43;1.80;;;14.50;99.90;;;;;;6146182;23;20664;-88
2023/10/14 14:05:35;;;;;;;0.83;0.50;;;14.30;99.90;;;;;;6148866;23;20182;-88
2023/10/14 14:08:02;;;;;;;1.70;0.90;;;14.10;99.90;;;;;;6122692;23;20202;-88